Time;durP1;ratioP1;P1;durP2;ratioP2;P2;SDS_P1;SDS_P2;PMS_P1;PMS_P2;Temp;Humidity;BMP_temperature;BMP_pressure;BME280_temperature;BME280_humidity;BME280_pressure;Samples;Min_cycle;Max_cycle;Signal;HPM_P1;HPM_P2
2021/10/29 00:02:55;;;;;;;1.20;0.57;;;;;;;13.53;100.00;97931.97;6296784;22;20044;-59
2021/10/29 00:05:58;;;;;;;0.10;0.10;;;;;;;13.43;100.00;97933.72;6294197;22;20306;-59
2021/10/29 00:09:02;;;;;;;0.10;0.10;;;;;;;13.44;100.00;97917.69;6294858;22;20387;-60
2021/10/29 00:12:05;;;;;;;0.10;0.10;;;;;;;13.41;100.00;97930.69;6293714;22;20322;-59
2021/10/29 00:15:10;;;;;;;1.23;0.10;;;;;;;13.50;100.00;97933.06;6276463;22;20110;-59
2021/10/29 00:18:13;;;;;;;0.10;0.10;;;;;;;13.50;100.00;97927.47;6295713;22;20098;-59
2021/10/29 00:21:16;;;;;;;0.10;0.10;;;;;;;13.52;100.00;97924.13;6295596;22;20403;-59
2021/10/29 00:24:20;;;;;;;0.10;0.10;;;;;;;13.62;100.00;97914.72;6294972;22;20514;-59
2021/10/29 00:27:23;;;;;;;0.10;0.10;;;;;;;13.60;100.00;97908.91;6295359;22;20030;-59
2021/10/29 00:30:26;;;;;;;0.82;0.10;;;;;;;13.57;100.00;97896.03;6275488;22;20025;-60
2021/10/29 00:33:29;;;;;;;9.63;0.43;;;;;;;13.56;100.00;97904.94;6296398;22;20021;-59
2021/10/29 00:36:33;;;;;;;0.10;0.10;;;;;;;13.58;100.00;97925.50;6295885;22;20148;-59
2021/10/29 00:39:35;;;;;;;0.28;0.28;;;;;;;13.62;100.00;97937.09;6296671;22;20033;-59
2021/10/29 00:42:40;;;;;;;1.13;0.20;;;;;;;13.62;100.00;97937.09;6297271;22;20251;-60
2021/10/29 00:45:43;;;;;;;0.28;0.20;;;;;;;13.64;100.00;97926.09;6296127;22;20401;-60
2021/10/29 01:13:36;;;;;;;0.10;0.00;;;;;;;14.00;100.00;97863.97;5107351;22;20422;-54
2021/10/29 01:16:50;;;;;;;0.10;0.10;;;;;;;14.13;100.00;97856.25;5085538;28;20101;-56
2021/10/29 01:19:55;;;;;;;0.10;0.00;;;;;;;14.11;100.00;97863.69;5097294;28;20097;-55
2021/10/29 01:22:59;;;;;;;0.30;0.20;;;;;;;14.19;100.00;97848.44;5110096;28;20481;-56
2021/10/29 01:26:15;;;;;;;0.15;0.15;;;;;;;14.25;100.00;97831.53;5110569;28;20096;-56
2021/10/29 01:29:18;;;;;;;2.05;0.13;;;;;;;14.21;100.00;97837.44;5110137;28;20105;-56
2021/10/29 01:32:22;;;;;;;1.10;0.40;;;;;;;14.24;100.00;97827.22;5110034;28;20498;-56
2021/10/29 01:35:25;;;;;;;1.02;0.22;;;;;;;14.22;100.00;97821.41;5118772;28;20038;-56
2021/10/29 01:38:31;;;;;;;0.20;0.10;;;;;;;14.20;100.00;97815.63;5130577;28;20046;-56
2021/10/29 01:41:34;;;;;;;2.70;0.40;;;;;;;14.36;100.00;97795.56;5130053;28;20450;-56
2021/10/29 01:44:38;;;;;;;0.30;0.22;;;;;;;14.30;100.00;97788.63;5130645;28;20039;-56
2021/10/29 01:47:41;;;;;;;1.00;0.25;;;;;;;13.99;100.00;97792.53;5130242;28;20047;-56
2021/10/29 01:50:44;;;;;;;0.47;0.30;;;;;;;14.26;100.00;97785.41;5130410;28;20085;-56
2021/10/29 01:53:47;;;;;;;1.08;0.60;;;;;;;13.77;100.00;97791.03;5130194;28;20046;-56
2021/10/29 01:56:51;;;;;;;2.60;0.20;;;;;;;13.60;100.00;97787.88;5130485;28;20142;-56
2021/10/29 01:59:55;;;;;;;0.85;0.45;;;;;;;13.50;100.00;97779.25;5130248;28;20041;-57
2021/10/29 02:02:57;;;;;;;0.45;0.13;;;;;;;13.47;100.00;97780.31;5130122;28;20080;-56
2021/10/29 02:06:01;;;;;;;0.30;0.10;;;;;;;13.40;100.00;97767.03;5130034;28;20052;-56
2021/10/29 02:09:05;;;;;;;0.13;0.10;;;;;;;13.38;100.00;97772.41;5130244;28;20521;-56
2021/10/29 02:12:09;;;;;;;0.20;0.20;;;;;;;13.41;100.00;97779.72;5129543;28;20043;-56
2021/10/29 02:15:13;;;;;;;0.17;0.10;;;;;;;13.47;100.00;97768.41;5114784;28;20108;-58
2021/10/29 02:18:16;;;;;;;0.30;0.20;;;;;;;13.53;100.00;97766.97;5116341;28;20088;-58
2021/10/29 02:21:19;;;;;;;0.10;0.10;;;;;;;13.55;100.00;97764.38;5115755;28;20379;-55
2021/10/29 02:24:22;;;;;;;0.43;0.20;;;;;;;13.54;100.00;97757.28;5115490;28;20089;-55
2021/10/29 02:27:25;;;;;;;0.10;0.10;;;;;;;13.51;100.00;97758.34;5118566;28;20095;-55
2021/10/29 02:30:28;;;;;;;0.90;0.45;;;;;;;13.53;100.00;97750.19;5115673;28;20068;-56
2021/10/29 02:33:31;;;;;;;0.10;0.10;;;;;;;13.48;100.00;97753.88;5115867;28;20046;-55
2021/10/29 02:36:34;;;;;;;0.20;0.20;;;;;;;13.53;100.00;97738.25;5115789;28;20039;-55
2021/10/29 02:39:36;;;;;;;0.20;0.20;;;;;;;13.54;100.00;97729.31;5115845;28;20153;-55
2021/10/29 02:42:39;;;;;;;0.10;0.10;;;;;;;13.60;100.00;97718.72;5115456;28;20451;-55
2021/10/29 02:45:42;;;;;;;0.10;0.00;;;;;;;13.59;100.00;97711.66;5115543;28;20111;-55
2021/10/29 02:48:45;;;;;;;0.10;0.00;;;;;;;13.62;100.00;97699.34;5115501;28;20438;-55
2021/10/29 02:51:48;;;;;;;0.63;0.10;;;;;;;13.72;100.00;97693.25;5115375;28;20042;-55
2021/10/29 02:54:51;;;;;;;0.10;0.10;;;;;;;13.78;100.00;97691.81;5115619;28;20072;-55
2021/10/29 02:57:54;;;;;;;1.67;0.45;;;;;;;13.79;100.00;97687.72;5115418;28;20093;-55
2021/10/29 03:00:58;;;;;;;0.10;0.10;;;;;;;13.81;100.00;97673.94;5115370;28;20050;-55
2021/10/29 03:04:01;;;;;;;0.20;0.20;;;;;;;13.85;100.00;97670.78;5115008;28;20407;-55
2021/10/29 03:07:04;;;;;;;0.85;0.22;;;;;;;13.90;100.00;97664.28;5115313;28;20172;-55
2021/10/29 03:10:10;;;;;;;0.75;0.30;;;;;;;13.98;100.00;97656.69;5074297;28;20583;-55
2021/10/29 03:13:13;;;;;;;0.10;0.10;;;;;;;14.04;100.00;97640.47;5074245;28;20043;-55
2021/10/29 03:16:16;;;;;;;0.13;0.10;;;;;;;14.09;100.00;97631.16;5073997;28;20114;-55
2021/10/29 03:19:19;;;;;;;0.95;0.20;;;;;;;14.12;100.00;97624.47;5073951;28;20446;-55
2021/10/29 03:22:22;;;;;;;0.10;0.10;;;;;;;14.15;100.00;97607.31;5073887;28;20102;-55
2021/10/29 03:25:25;;;;;;;0.10;0.03;;;;;;;14.17;100.00;97615.91;5073155;28;20048;-54
2021/10/29 03:28:29;;;;;;;0.10;0.10;;;;;;;14.20;100.00;97608.44;5073901;28;20035;-54
2021/10/29 03:31:31;;;;;;;1.27;0.10;;;;;;;14.19;100.00;97590.16;5073857;28;20047;-55
2021/10/29 03:34:34;;;;;;;0.55;0.20;;;;;;;14.15;100.00;97584.91;5073703;28;20059;-55
2021/10/29 03:41:02;;;;;;;0.10;0.00;;;;;;;14.13;100.00;97575.56;5074075;28;20514;-55
2021/10/29 03:44:22;;;;;;;0.20;0.15;;;;;;;14.12;100.00;97560.09;5073755;28;20075;-56
2021/10/29 03:47:29;;;;;;;0.10;0.10;;;;;;;14.12;100.00;97562.91;5073434;28;20071;-56
2021/10/29 03:50:35;;;;;;;0.10;0.10;;;;;;;14.13;100.00;97547.59;5073712;28;20091;-56
2021/10/29 04:00:03;;;;;;;0.85;0.20;;;;;;;14.12;100.00;97546.84;5073570;28;20443;-55
2021/10/29 04:03:07;;;;;;;0.20;0.20;;;;;;;14.11;100.00;97550.94;5073363;28;20106;-53
2021/10/29 04:06:11;;;;;;;0.43;0.20;;;;;;;14.12;100.00;97534.91;5073579;28;20069;-54
2021/10/29 04:09:15;;;;;;;0.30;0.20;;;;;;;14.12;100.00;97544.03;5085800;28;20078;-54
2021/10/29 04:12:17;;;;;;;0.50;0.40;;;;;;;14.14;100.00;97538.63;5093589;28;20442;-54
2021/10/29 04:15:21;;;;;;;2.08;0.15;;;;;;;14.11;100.00;97539.00;5093312;28;20461;-54
2021/10/29 04:18:26;;;;;;;1.80;0.43;;;;;;;14.12;100.00;97523.72;5093146;28;20127;-54
2021/10/29 04:21:29;;;;;;;1.05;0.50;;;;;;;14.07;100.00;97524.63;5093259;28;20467;-54
2021/10/29 04:24:32;;;;;;;0.47;0.10;;;;;;;14.08;100.00;97518.47;5092986;28;20085;-54
2021/10/29 04:27:42;;;;;;;1.25;0.20;;;;;;;14.12;100.00;97512.53;5093231;28;20127;-54
2021/10/29 04:30:46;;;;;;;0.10;0.10;;;;;;;14.11;100.00;97500.56;5093449;28;20100;-54
2021/10/29 04:33:50;;;;;;;0.20;0.10;;;;;;;14.08;100.00;97496.06;5093372;28;20101;-54
2021/10/29 04:36:58;;;;;;;0.30;0.10;;;;;;;14.07;100.00;97488.25;5080989;28;20047;-54
2021/10/29 04:40:01;;;;;;;1.85;0.43;;;;;;;14.07;100.00;97482.66;5093258;28;20074;-54
2021/10/29 04:43:06;;;;;;;0.30;0.15;;;;;;;14.06;100.00;97467.91;5093239;28;20089;-54
2021/10/29 04:46:09;;;;;;;0.43;0.40;;;;;;;14.02;100.00;97469.56;5093357;28;20050;-54
2021/10/29 04:49:12;;;;;;;1.08;0.40;;;;;;;13.99;100.00;97477.00;5093161;28;20097;-53
2021/10/29 04:52:15;;;;;;;1.13;0.63;;;;;;;13.94;100.00;97477.22;5093022;28;20034;-57
2021/10/29 04:55:18;;;;;;;0.68;0.20;;;;;;;13.90;100.00;97471.97;5093015;28;20051;-57
2021/10/29 04:58:21;;;;;;;1.40;0.45;;;;;;;13.88;100.00;97468.97;5092861;28;20061;-58
2021/10/29 05:01:24;;;;;;;1.17;0.35;;;;;;;13.90;100.00;97452.41;5092878;28;20039;-57
2021/10/29 05:04:27;;;;;;;0.10;0.10;;;;;;;13.90;100.00;97435.63;5092631;28;20085;-56
2021/10/29 05:07:30;;;;;;;2.65;0.20;;;;;;;13.89;100.00;97452.94;5080531;28;20055;-55
2021/10/29 05:10:33;;;;;;;0.30;0.30;;;;;;;13.88;100.00;97448.66;5052679;28;20048;-55
2021/10/29 05:13:36;;;;;;;0.10;0.10;;;;;;;13.88;100.00;97445.84;5052672;28;20496;-55
2021/10/29 05:16:39;;;;;;;6.75;1.00;;;;;;;13.89;100.00;97444.53;5052313;28;20129;-55
2021/10/29 05:19:41;;;;;;;2.10;0.45;;;;;;;13.85;100.00;97444.16;5052517;28;20118;-55
2021/10/29 05:22:45;;;;;;;5.10;0.45;;;;;;;13.80;100.00;97436.69;5052356;28;20089;-56
2021/10/29 05:25:48;;;;;;;0.40;0.40;;;;;;;13.78;100.00;97445.63;5052639;28;20051;-56
2021/10/29 05:28:51;;;;;;;1.52;1.00;;;;;;;13.77;100.00;97440.59;5051966;28;20082;-55
2021/10/29 05:31:55;;;;;;;3.13;1.55;;;;;;;13.73;100.00;97431.84;5052493;28;20435;-55
2021/10/29 05:35:00;;;;;;;0.57;0.32;;;;;;;13.69;100.00;97430.13;5069591;28;20051;-56
2021/10/29 05:38:04;;;;;;;2.33;0.57;;;;;;;13.69;100.00;97438.53;5072541;28;20098;-55
2021/10/29 05:41:07;;;;;;;1.00;0.50;;;;;;;13.65;100.00;97421.38;5071977;28;20408;-55
2021/10/29 05:44:09;;;;;;;0.57;0.30;;;;;;;13.63;100.00;97423.22;5072456;28;20047;-56
2021/10/29 05:47:12;;;;;;;3.70;0.85;;;;;;;13.64;100.00;97425.47;5059517;28;20046;-56
2021/10/29 05:50:16;;;;;;;6.93;0.90;;;;;;;13.62;100.00;97416.88;5076075;28;20066;-55
2021/10/29 05:54:08;;;;;;;1.75;0.38;;;;;;;13.60;100.00;97408.28;5075809;28;20039;-58
2021/10/29 05:56:42;;;;;;;1.65;0.90;;;;;;;13.69;100.00;97416.16;5076342;28;20055;-57
2021/10/29 05:59:45;;;;;;;0.43;0.30;;;;;;;13.64;100.00;97407.94;5075563;28;20102;-57
2021/10/29 06:02:49;;;;;;;0.25;0.20;;;;;;;13.65;100.00;97410.19;5075445;28;20071;-56
2021/10/29 06:05:53;;;;;;;1.02;0.63;;;;;;;13.63;100.00;97406.44;5075236;28;20119;-56
2021/10/29 06:08:56;;;;;;;0.47;0.43;;;;;;;13.58;100.00;97387.78;5086013;28;20396;-56
2021/10/29 06:12:00;;;;;;;1.95;0.50;;;;;;;13.51;100.00;97400.44;5083304;28;20034;-56
2021/10/29 06:15:07;;;;;;;0.60;0.25;;;;;;;13.51;100.00;97383.66;5095501;28;20105;-56
2021/10/29 06:18:12;;;;;;;1.58;0.50;;;;;;;13.51;100.00;97378.06;5095786;28;20106;-56
2021/10/29 06:21:20;;;;;;;1.13;0.20;;;;;;;13.55;100.00;97378.47;5095838;28;20039;-56
2021/10/29 06:24:25;;;;;;;2.22;1.10;;;;;;;13.55;100.00;97383.31;5095613;28;20038;-56
2021/10/29 06:30:35;;;;;;;3.28;0.85;;;;;;;13.57;100.00;97384.25;5079593;28;20402;-57
2021/10/29 06:33:41;;;;;;;1.40;0.63;;;;;;;13.57;100.00;97386.31;5075062;28;20125;-56
2021/10/29 06:36:47;;;;;;;0.95;0.63;;;;;;;13.55;100.00;97372.88;5074795;28;20044;-57
2021/10/29 06:39:51;;;;;;;0.77;0.50;;;;;;;13.54;100.00;97365.78;5074853;28;20048;-57
2021/10/29 06:43:02;;;;;;;2.72;1.15;;;;;;;13.62;100.00;97366.53;5074917;28;20070;-57
2021/10/29 06:49:18;;;;;;;6.55;1.08;;;;;;;13.68;100.00;97364.34;5075374;28;20073;-56
2021/10/29 07:12:08;;;;;;;1.25;0.25;;;;;;;13.66;100.00;97350.13;5094515;28;20085;-56
2021/10/29 07:42:04;;;;;;;5.25;0.75;;;;;;;13.52;100.00;97346.03;5114344;28;20051;-55
2021/10/29 07:45:09;;;;;;;1.85;0.68;;;;;;;13.50;100.00;97345.84;5113828;28;20093;-55
2021/10/29 07:48:12;;;;;;;5.40;1.30;;;;;;;13.52;100.00;97342.47;5114231;28;20042;-55
2021/10/29 07:51:15;;;;;;;1.23;1.00;;;;;;;13.54;100.00;97337.81;5114451;28;20039;-55
2021/10/29 07:54:18;;;;;;;0.32;0.32;;;;;;;13.52;100.00;97340.44;5114387;28;20093;-55
2021/10/29 07:57:21;;;;;;;1.15;0.82;;;;;;;13.55;100.00;97341.38;5114149;28;20104;-56
2021/10/29 08:00:25;;;;;;;10.65;1.67;;;;;;;13.58;100.00;97341.00;5113958;28;20081;-55
2021/10/29 08:03:28;;;;;;;1.30;0.43;;;;;;;13.59;100.00;97334.09;5113978;28;20074;-56
2021/10/29 08:06:30;;;;;;;1.02;0.60;;;;;;;13.59;100.00;97328.50;5113739;28;20043;-55
2021/10/29 08:09:33;;;;;;;4.63;1.38;;;;;;;13.51;100.00;97310.97;5097689;28;20550;-56
2021/10/29 08:12:37;;;;;;;0.57;0.50;;;;;;;13.44;100.00;97311.72;5093169;28;20038;-55
2021/10/29 08:15:42;;;;;;;1.98;0.45;;;;;;;13.36;100.00;97321.38;5093254;28;20062;-55
2021/10/29 08:18:47;;;;;;;0.30;0.20;;;;;;;13.38;100.00;97319.50;5093524;28;20097;-56
2021/10/29 08:21:51;;;;;;;0.57;0.45;;;;;;;13.44;100.00;97327.75;5093443;28;20043;-55
2021/10/29 08:24:53;;;;;;;0.28;0.22;;;;;;;13.39;100.00;97323.81;5093554;28;20042;-55
2021/10/29 08:27:56;;;;;;;1.45;0.90;;;;;;;13.40;100.00;97319.72;5093222;28;20093;-54
2021/10/29 08:31:01;;;;;;;1.38;0.68;;;;;;;13.49;100.00;97318.44;5093101;28;20051;-55
2021/10/29 08:34:04;;;;;;;2.10;0.60;;;;;;;13.54;100.00;97325.88;5092274;28;20495;-55
2021/10/29 08:37:08;;;;;;;2.20;0.90;;;;;;;13.55;100.00;97311.38;5093204;28;20047;-55
2021/10/29 08:40:11;;;;;;;0.68;0.40;;;;;;;13.57;100.00;97316.38;5093097;28;20088;-56
2021/10/29 08:43:14;;;;;;;0.63;0.38;;;;;;;13.62;100.00;97309.88;5092771;28;20038;-54
2021/10/29 08:46:18;;;;;;;7.22;0.57;;;;;;;13.61;100.00;97320.31;5092905;28;20095;-55
2021/10/29 08:49:21;;;;;;;0.98;0.35;;;;;;;13.54;100.00;97317.50;5092905;28;20111;-56
2021/10/29 08:52:24;;;;;;;0.65;0.28;;;;;;;13.59;100.00;97306.16;5092667;28;20438;-56
2021/10/29 08:55:29;;;;;;;1.13;0.47;;;;;;;13.60;100.00;97316.00;5092189;28;20047;-55
2021/10/29 08:58:35;;;;;;;3.13;1.20;;;;;;;13.66;100.00;97316.56;5092133;28;20131;-55
2021/10/29 09:32:18;;;;;;;4.22;0.82;;;;;;;13.94;100.00;97228.19;5116567;28;20081;-55
2021/10/29 09:35:24;;;;;;;2.60;0.73;;;;;;;13.95;100.00;97229.66;5116151;28;20085;-55
2021/10/29 09:38:27;;;;;;;3.00;0.35;;;;;;;13.96;100.00;97219.97;5087355;28;20162;-55
2021/10/29 09:41:31;;;;;;;3.28;0.38;;;;;;;14.02;100.00;97212.13;5065153;28;20046;-56
2021/10/29 09:44:39;;;;;;;2.08;0.82;;;;;;;14.01;100.00;97210.63;5078449;28;20134;-56
2021/10/29 09:47:49;;;;;;;2.65;0.70;;;;;;;14.20;100.00;97202.56;5077399;28;20050;-56
2021/10/29 09:50:55;;;;;;;3.63;0.70;;;;;;;14.26;100.00;97194.69;5077638;28;20092;-56
2021/10/29 09:57:02;;;;;;;5.00;0.90;;;;;;;14.06;100.00;97201.28;5075696;28;20295;-56
2021/10/29 10:00:12;;;;;;;0.30;0.17;;;;;;;14.09;100.00;97172.19;5075481;28;20144;-55
2021/10/29 10:03:21;;;;;;;0.70;0.28;;;;;;;13.85;100.00;97181.94;5074824;28;20062;-52
2021/10/29 10:06:25;;;;;;;0.50;0.30;;;;;;;14.03;100.00;97185.63;5077849;28;20054;-56
2021/10/29 10:09:31;;;;;;;0.85;0.25;;;;;;;14.07;100.00;97188.78;5066087;28;21162;-55
2021/10/29 10:12:37;;;;;;;0.65;0.20;;;;;;;14.30;100.00;97181.09;5057809;28;20479;-52
2021/10/29 10:15:41;;;;;;;0.38;0.32;;;;;;;14.43;100.00;97178.03;5056152;28;20687;-55
2021/10/29 10:18:44;;;;;;;0.15;0.15;;;;;;;14.47;100.00;97178.41;5054943;28;20043;-55
2021/10/29 10:21:53;;;;;;;0.57;0.32;;;;;;;14.49;100.00;97186.97;5055929;28;20691;-51
2021/10/29 10:25:04;;;;;;;0.35;0.32;;;;;;;14.29;100.00;97196.41;5057509;28;20055;-55
2021/10/29 10:28:35;;;;;;;2.40;0.70;;;;;;;14.29;100.00;97188.00;5057371;28;20058;-52
2021/10/29 10:42:31;;;;;;;0.20;0.20;;;;;;;14.14;100.00;97219.53;5057028;28;20309;-56
2021/10/29 10:45:35;;;;;;;1.15;0.35;;;;;;;13.94;100.00;97234.53;5055467;28;20132;-57
2021/10/29 10:52:12;;;;;;;1.50;0.45;;;;;;;13.97;100.00;97243.84;5056725;28;20062;-53
2021/10/29 10:55:19;;;;;;;4.60;0.40;;;;;;;14.02;100.00;97262.47;5055850;28;20063;-57
2021/10/29 10:58:44;;;;;;;0.17;0.10;;;;;;;13.97;100.00;97266.97;5054323;28;20130;-51
2021/10/29 11:11:54;;;;;;;2.80;0.35;;;;;;;13.57;100.00;97297.56;5078599;28;20534;-55
2021/10/29 11:15:10;;;;;;;0.40;0.20;;;;;;;13.43;100.00;97321.38;5077593;28;20100;-51
2021/10/29 11:18:16;;;;;;;0.22;0.20;;;;;;;13.35;100.00;97314.28;5061560;28;20055;-57
2021/10/29 11:21:37;;;;;;;0.17;0.15;;;;;;;13.21;100.00;97305.31;5056525;28;20495;-56
2021/10/29 11:24:41;;;;;;;0.10;0.00;;;;;;;12.99;100.00;97322.00;5056065;28;20451;-55
2021/10/29 11:27:45;;;;;;;0.17;0.10;;;;;;;12.76;100.00;97350.56;5056655;28;20531;-56
2021/10/29 11:30:48;;;;;;;0.63;0.10;;;;;;;12.61;100.00;97367.25;5042893;28;20145;-56
2021/10/29 11:33:53;;;;;;;0.15;0.10;;;;;;;12.52;100.00;97380.94;5057199;28;20105;-56
2021/10/29 11:36:56;;;;;;;0.20;0.20;;;;;;;12.39;100.00;97381.78;5056566;28;20578;-57
2021/10/29 11:40:00;;;;;;;0.30;0.30;;;;;;;12.32;100.00;97392.91;5056794;28;20070;-56
2021/10/29 11:43:03;;;;;;;0.10;0.10;;;;;;;12.32;100.00;97401.28;5056034;28;20199;-56
2021/10/29 11:46:12;;;;;;;0.38;0.20;;;;;;;12.31;100.00;97408.16;5056166;28;20043;-51
2021/10/29 11:49:18;;;;;;;0.82;0.13;;;;;;;12.38;100.00;97415.84;5057419;28;20295;-56
2021/10/29 11:52:21;;;;;;;0.20;0.20;;;;;;;12.38;100.00;97424.22;5058514;28;20438;-51
2021/10/29 11:55:36;;;;;;;2.85;0.52;;;;;;;12.49;100.00;97432.31;5058730;28;20039;-51
2021/10/29 11:58:46;;;;;;;0.10;0.10;;;;;;;12.55;100.00;97450.41;5055751;28;20039;-56
2021/10/29 12:01:55;;;;;;;0.32;0.25;;;;;;;12.56;100.00;97445.59;5057240;28;20628;-56
2021/10/29 12:08:28;;;;;;;3.00;0.20;;;;;;;12.49;100.00;97460.22;5058538;28;20097;-55
2021/10/29 12:11:32;;;;;;;0.93;0.28;;;;;;;12.41;100.00;97465.72;5060496;28;20089;-51
2021/10/29 12:14:37;;;;;;;0.93;0.65;;;;;;;12.40;100.00;97485.81;5058327;28;20376;-57
2021/10/29 12:17:52;;;;;;;1.75;0.13;;;;;;;12.40;100.00;97491.41;5064053;28;20047;-56
2021/10/29 12:20:56;;;;;;;2.47;0.28;;;;;;;12.46;100.00;97500.38;5063777;28;20039;-57
2021/10/29 12:24:04;;;;;;;0.10;0.05;;;;;;;12.50;100.00;97509.16;5062352;28;21082;-56
2021/10/29 12:27:15;;;;;;;2.25;0.40;;;;;;;12.52;100.00;97517.75;5063765;28;20047;-56
2021/10/29 13:04:41;;;;;;;0.40;0.38;;;;;;;12.77;100.00;97574.75;5045918;28;20035;-52
2021/10/29 13:07:45;;;;;;;0.93;0.10;;;;;;;12.70;100.00;97581.00;5044342;28;20424;-56
2021/10/29 13:10:54;;;;;;;0.10;0.00;;;;;;;12.72;100.00;97586.78;5060267;28;20043;-52
2021/10/29 13:14:00;;;;;;;4.18;0.47;;;;;;;12.71;100.00;97593.69;5048252;28;20098;-56
2021/10/29 13:17:24;;;;;;;1.52;0.55;;;;;;;12.63;100.00;97590.81;5079352;28;20046;-52
2021/10/29 14:24:23;;;;;;;0.15;0.10;;;;;;;12.21;100.00;97686.19;5115020;28;20043;-56
2021/10/29 14:31:18;;;;;;;0.15;0.10;;;;;;;12.43;100.00;97685.72;5064480;28;20111;-57
2021/10/29 14:34:26;;;;;;;0.13;0.13;;;;;;;12.29;100.00;97698.94;5054846;28;20592;-55
2021/10/29 14:37:45;;;;;;;0.20;0.20;;;;;;;12.14;100.00;97699.50;5047276;28;20337;-51
2021/10/29 14:40:57;;;;;;;0.10;0.00;;;;;;;11.99;100.00;97704.91;5065751;28;20035;-58
2021/10/29 14:44:14;;;;;;;0.10;0.10;;;;;;;11.97;100.00;97713.06;5053080;28;20106;-56
2021/10/29 15:49:58;;;;;;;0.13;0.13;;;;;;;10.55;100.00;97790.03;5046527;28;20094;-55
2021/10/29 15:53:01;;;;;;;0.22;0.22;;;;;;;10.51;100.00;97787.56;5026346;28;20067;-56
2021/10/29 15:56:21;;;;;;;0.88;0.85;;;;;;;10.45;100.00;97791.69;5028270;28;20290;-56
2021/10/29 16:02:38;;;;;;;1.35;0.35;;;;;;;10.31;100.00;97810.31;5045385;28;20611;-55
2021/10/29 16:19:13;;;;;;;6.97;1.50;;;;;;;10.03;100.00;97831.34;5068104;28;20400;-55
2021/10/29 16:22:27;;;;;;;4.05;1.85;;;;;;;10.03;100.00;97832.06;5067094;28;20089;-55
2021/10/29 16:25:37;;;;;;;3.80;1.48;;;;;;;9.97;100.00;97831.38;5057323;28;20597;-55
2021/10/29 16:28:49;;;;;;;1.70;1.00;;;;;;;9.85;100.00;97839.06;5066668;28;20142;-54
2021/10/29 16:31:55;;;;;;;4.03;1.33;;;;;;;9.77;100.00;97840.16;5065401;28;20066;-54
2021/10/29 16:35:04;;;;;;;2.67;1.45;;;;;;;9.68;100.00;97844.03;5066455;28;20035;-54
2021/10/29 16:38:09;;;;;;;2.83;0.60;;;;;;;9.60;100.00;97847.88;5057522;28;20046;-54
2021/10/29 16:41:13;;;;;;;4.93;0.80;;;;;;;9.52;100.00;97849.72;5048914;28;20039;-54
2021/10/29 16:44:16;;;;;;;0.52;0.20;;;;;;;9.39;100.00;97855.13;5062582;28;20038;-54
2021/10/29 16:47:45;;;;;;;0.25;0.25;;;;;;;9.32;100.00;97864.00;5064745;28;20574;-54
2021/10/29 16:50:49;;;;;;;0.43;0.43;;;;;;;9.37;100.00;97858.41;5069732;28;20055;-54
2021/10/29 16:53:58;;;;;;;0.95;0.60;;;;;;;9.21;100.00;97858.50;5067698;28;20051;-56
2021/10/29 16:57:02;;;;;;;1.85;0.52;;;;;;;9.06;100.00;97856.84;5065840;28;20043;-58
2021/10/29 17:00:43;;;;;;;;;;;;;;;;;;;;;
2021/10/29 17:03:55;;;;;;;2.05;1.17;;;;;;;8.86;100.00;97875.88;5056881;28;20148;-51
2021/10/29 17:06:58;;;;;;;1.00;0.90;;;;;;;8.74;100.00;97877.97;5064284;28;21170;-54
2021/10/29 17:10:07;;;;;;;1.70;0.63;;;;;;;8.71;100.00;97878.97;5063101;28;20039;-52
2021/10/29 17:13:10;;;;;;;0.73;0.65;;;;;;;8.66;100.00;97879.00;5065176;28;20494;-52
2021/10/29 17:16:13;;;;;;;1.33;0.45;;;;;;;8.58;100.00;97889.88;5063628;28;20356;-52
2021/10/29 17:19:16;;;;;;;1.00;0.77;;;;;;;8.53;100.00;97893.44;5064774;28;20119;-52
2021/10/29 17:22:19;;;;;;;5.70;1.25;;;;;;;8.48;100.00;97910.06;5065949;28;20896;-53
2021/10/29 17:25:23;;;;;;;4.32;0.75;;;;;;;8.40;100.00;97912.63;5067248;28;20047;-54
2021/10/29 17:28:26;;;;;;;1.95;1.00;;;;;;;8.33;100.00;97913.13;5065944;28;20634;-56
2021/10/29 17:31:32;;;;;;;0.30;0.30;;;;;;;8.30;100.00;97922.47;5064152;28;20047;-56
2021/10/29 17:34:35;;;;;;;1.15;0.65;;;;;;;8.28;100.00;97922.22;5088655;28;20139;-56
2021/10/29 17:38:02;;;;;;;0.50;0.50;;;;;;;8.22;100.00;97921.44;5091741;28;20494;-57
2021/10/29 17:41:34;;;;;;;0.68;0.50;;;;;;;8.15;100.00;97919.19;5091806;28;20411;-56
2021/10/29 17:44:56;;;;;;;1.00;0.32;;;;;;;8.14;100.00;97921.19;5093556;28;20058;-56
2021/10/29 17:48:40;;;;;;;2.00;0.98;;;;;;;8.09;100.00;97927.50;5095025;28;20055;-56
2021/10/29 17:52:01;;;;;;;17.95;3.60;;;;;;;8.06;100.00;97936.06;5043376;28;20077;-56
2021/10/29 17:59:20;;;;;;;2.20;1.63;;;;;;;7.95;100.00;97931.28;5094867;28;20050;-54
2021/10/29 18:02:24;;;;;;;2.40;0.32;;;;;;;7.92;100.00;97939.88;5082805;28;20063;-56
2021/10/29 18:05:27;;;;;;;4.32;1.02;;;;;;;7.91;100.00;97949.44;5076330;28;20097;-57
2021/10/29 18:08:41;;;;;;;1.67;0.63;;;;;;;7.86;100.00;97948.16;5069157;28;20054;-56
2021/10/29 18:11:48;;;;;;;3.33;0.60;;;;;;;7.86;100.00;97945.38;5068426;28;20150;-57
2021/10/29 18:14:52;;;;;;;0.77;0.77;;;;;;;7.79;100.00;97954.22;5051596;28;20077;-58
2021/10/29 18:17:56;;;;;;;0.77;0.70;;;;;;;7.78;100.00;97957.47;5087637;22;20331;-54
2021/10/29 18:21:10;;;;;;;2.85;1.25;;;;;;;7.81;100.00;97962.03;5010999;28;20056;-51
2021/10/29 18:24:14;;;;;;;6.60;0.90;;;;;;;7.80;100.00;97966.03;5003083;28;20504;-51
2021/10/29 18:27:19;;;;;;;0.30;0.30;;;;;;;7.73;100.00;97972.09;5005808;28;20316;-51
2021/10/29 18:30:25;;;;;;;4.65;0.73;;;;;;;7.66;100.00;97973.34;5006755;28;20064;-51
2021/10/29 18:33:30;;;;;;;4.78;0.40;;;;;;;7.60;100.00;97978.13;5003225;28;20099;-51
2021/10/29 18:36:33;;;;;;;11.70;0.80;;;;;;;7.67;100.00;97974.13;5005170;28;20048;-51
2021/10/29 18:39:36;;;;;;;1.08;0.73;;;;;;;7.68;100.00;97981.16;5002964;28;20118;-51
2021/10/29 18:42:39;;;;;;;3.88;0.95;;;;;;;7.64;100.00;97981.41;4993881;28;20410;-51
2021/10/29 18:45:42;;;;;;;0.90;0.90;;;;;;;7.69;100.00;97983.41;5004443;28;20045;-51
2021/10/29 18:48:49;;;;;;;1.67;0.68;;;;;;;7.72;100.00;97992.75;5003676;28;20036;-51
2021/10/29 18:51:52;;;;;;;1.58;0.77;;;;;;;7.69;100.00;97993.75;5027208;28;20201;-51
2021/10/29 18:54:55;;;;;;;0.82;0.68;;;;;;;7.67;100.00;97985.19;5001497;28;20860;-51
2021/10/29 18:57:58;;;;;;;0.77;0.77;;;;;;;7.71;100.00;97996.78;4984089;28;20115;-51
2021/10/29 19:01:02;;;;;;;5.25;0.85;;;;;;;7.74;100.00;97991.00;4985868;28;20041;-51
2021/10/29 19:04:05;;;;;;;2.10;0.68;;;;;;;7.69;100.00;97988.94;5007847;28;20080;-51
2021/10/29 19:07:09;;;;;;;15.38;1.05;;;;;;;7.75;100.00;97992.50;4982871;28;20410;-51
2021/10/29 19:10:12;;;;;;;0.80;0.80;;;;;;;7.71;100.00;97999.56;5001958;28;20340;-51
2021/10/29 19:13:16;;;;;;;10.73;1.02;;;;;;;7.67;100.00;97996.28;5014185;28;20426;-51
2021/10/29 19:16:19;;;;;;;1.35;0.98;;;;;;;7.61;100.00;97999.78;5001465;28;20103;-51
2021/10/29 19:19:22;;;;;;;7.15;1.88;;;;;;;7.58;100.00;98000.00;5001484;28;20168;-51
2021/10/29 19:22:25;;;;;;;5.43;0.95;;;;;;;7.53;100.00;97998.75;5001675;28;20129;-51
2021/10/29 19:25:28;;;;;;;1.85;1.20;;;;;;;7.44;100.00;97989.91;5003585;28;20061;-51
2021/10/29 19:28:31;;;;;;;1.48;0.88;;;;;;;7.39;100.00;97993.41;5003435;28;20464;-51
2021/10/29 19:31:35;;;;;;;2.25;0.52;;;;;;;7.36;100.00;97992.41;5003513;28;20258;-51
2021/10/29 19:34:44;;;;;;;1.73;1.10;;;;;;;7.32;100.00;97993.91;4984063;28;20536;-51
2021/10/29 19:40:55;;;;;;;8.45;1.77;;;;;;;7.24;100.00;97993.63;5012320;28;20104;-51
2021/10/29 19:43:58;;;;;;;0.65;0.65;;;;;;;7.13;100.00;97993.59;5012405;28;20159;-52
2021/10/29 19:47:02;;;;;;;6.72;0.95;;;;;;;6.98;100.00;97987.47;5012290;28;20041;-52
2021/10/29 19:50:06;;;;;;;2.42;0.90;;;;;;;6.95;100.00;97985.72;5012693;28;20048;-52
2021/10/29 19:53:10;;;;;;;3.50;0.60;;;;;;;6.94;100.00;97986.19;5013741;28;20481;-52
2021/10/29 19:56:14;;;;;;;4.20;1.40;;;;;;;6.95;100.00;97988.50;5019429;28;20087;-51
2021/10/29 19:59:18;;;;;;;2.42;1.48;;;;;;;6.92;100.00;97989.47;5010107;28;20045;-52
2021/10/29 20:02:21;;;;;;;0.45;0.45;;;;;;;6.84;100.00;97991.94;5006358;28;20068;-52
2021/10/29 20:05:24;;;;;;;1.58;1.48;;;;;;;6.84;100.00;97977.38;5003509;28;20762;-52
2021/10/29 20:08:27;;;;;;;2.47;1.00;;;;;;;6.77;100.00;97983.38;4999813;28;20497;-52